createdAt,value
2018-09-12T00:01:28.406Z,44.55
2018-09-12T00:03:59.820Z,44.54
2018-09-12T00:06:31.348Z,44.78
2018-09-12T00:09:02.764Z,44.74
2018-09-12T00:11:34.228Z,44.84
2018-09-12T00:14:05.742Z,45.14
2018-09-12T00:16:37.507Z,44.74
2018-09-12T00:19:09.427Z,44.52
2018-09-12T00:21:40.850Z,45.27
2018-09-12T00:24:12.390Z,44.95
2018-09-12T00:26:43.760Z,44.81
2018-09-12T00:29:15.322Z,44.79
2018-09-12T00:31:46.832Z,44.58
2018-09-12T00:34:18.392Z,44.65
2018-09-12T00:36:49.981Z,45.06
2018-09-12T00:39:21.675Z,45.20
2018-09-12T00:42:42.741Z,44.97
2018-09-12T00:45:13.914Z,44.76
2018-09-12T00:47:44.385Z,44.62
2018-09-12T00:50:15.588Z,44.88
2018-09-12T00:52:47.231Z,45.23
2018-09-12T00:55:18.503Z,44.77
2018-09-12T00:57:49.595Z,45.23
2018-09-12T01:00:23.845Z,44.75
2018-09-12T01:02:55.345Z,44.79
2018-09-12T01:05:26.751Z,44.71
2018-09-12T01:07:58.315Z,45.05
2018-09-12T01:10:29.807Z,45.06
2018-09-12T01:13:01.375Z,45.18
2018-09-12T01:15:32.783Z,44.91
2018-09-12T01:18:04.024Z,45.02
2018-09-12T01:20:35.345Z,45.10
2018-09-12T01:23:06.842Z,45.11
2018-09-12T01:25:38.434Z,44.82
2018-09-12T01:28:09.798Z,45.06
2018-09-12T01:30:41.378Z,45.03
2018-09-12T01:33:12.980Z,45.42
2018-09-12T01:35:44.542Z,44.62
2018-09-12T01:38:16.216Z,45.26
2018-09-12T01:40:47.733Z,45.07
2018-09-12T01:43:19.410Z,45.02
2018-09-12T01:45:50.978Z,45.39
2018-09-12T01:48:22.629Z,45.28
2018-09-12T01:50:54.217Z,45.03
2018-09-12T01:53:25.689Z,45.00
2018-09-12T01:55:57.379Z,45.40
2018-09-12T01:58:28.730Z,45.37
2018-09-12T02:01:00.307Z,45.18
2018-09-12T02:03:31.749Z,45.29
2018-09-12T02:06:03.405Z,45.29
2018-09-12T02:08:34.790Z,45.28
2018-09-12T02:11:06.456Z,45.19
2018-09-12T02:13:37.795Z,45.06
2018-09-12T02:16:09.403Z,45.34
2018-09-12T02:18:40.909Z,45.40
2018-09-12T02:21:11.588Z,44.93
2018-09-12T02:23:43.213Z,45.69
2018-09-12T02:26:14.769Z,45.18
2018-09-12T02:28:46.437Z,45.35
2018-09-12T02:31:18.214Z,45.07
2018-09-12T02:33:49.754Z,45.56
2018-09-12T02:36:28.218Z,45.08
2018-09-12T02:39:00.763Z,45.20
2018-09-12T02:41:32.353Z,45.35
2018-09-12T02:44:03.810Z,45.23
2018-09-12T02:46:35.393Z,45.43
2018-09-12T02:49:06.838Z,45.37
2018-09-12T02:51:38.395Z,45.06
2018-09-12T02:54:09.879Z,45.44
2018-09-12T02:56:41.510Z,45.38
2018-09-12T02:59:12.989Z,45.17
2018-09-12T03:01:44.639Z,45.35
2018-09-12T03:04:16.211Z,45.09
2018-09-12T03:06:47.707Z,45.68
2018-09-12T03:09:19.210Z,45.44
2018-09-12T03:11:50.698Z,45.66
2018-09-12T03:14:22.391Z,45.18
2018-09-12T03:16:53.835Z,45.49
2018-09-12T03:19:25.471Z,45.34
2018-09-12T03:21:56.880Z,45.46
2018-09-12T03:24:28.433Z,45.68
2018-09-12T03:27:00.027Z,45.55
2018-09-12T03:29:31.979Z,45.67
2018-09-12T03:32:03.577Z,45.53
2018-09-12T03:34:35.182Z,45.26
2018-09-12T03:37:06.723Z,45.62
2018-09-12T03:39:38.466Z,45.81
2018-09-12T03:42:10.010Z,45.88
2018-09-12T03:44:41.894Z,45.66
2018-09-12T03:47:12.578Z,45.44
2018-09-12T03:49:43.863Z,45.29
2018-09-12T03:52:15.376Z,45.64
2018-09-12T03:54:46.785Z,45.50
2018-09-12T03:57:18.295Z,45.68
2018-09-12T03:59:49.811Z,45.90
2018-09-12T04:02:21.029Z,45.99
2018-09-12T04:04:52.332Z,45.67
2018-09-12T04:07:23.784Z,46.07
2018-09-12T04:09:55.393Z,45.41
2018-09-12T04:12:26.785Z,45.75
2018-09-12T04:14:58.025Z,46.21
2018-09-12T04:17:34.649Z,45.60
2018-09-12T04:20:06.665Z,45.23
2018-09-12T04:22:38.220Z,45.64
2018-09-12T04:25:09.791Z,46.05
2018-09-12T04:27:41.437Z,45.90
2018-09-12T04:30:12.980Z,45.89
2018-09-12T04:32:44.524Z,46.06
2018-09-12T04:35:16.195Z,45.57
2018-09-12T04:37:47.771Z,45.96
2018-09-12T04:40:19.416Z,45.98
2018-09-12T04:42:51.236Z,45.56
2018-09-12T04:45:22.841Z,46.06
2018-09-12T04:47:54.364Z,45.68
2018-09-12T04:50:26.029Z,45.18
2018-09-12T04:52:57.655Z,45.38
2018-09-12T04:55:29.229Z,45.68
2018-09-12T04:58:00.729Z,45.56
2018-09-12T05:00:32.385Z,45.68
2018-09-12T05:03:03.889Z,45.61
2018-09-12T05:05:34.579Z,45.82
2018-09-12T05:08:06.341Z,45.59
2018-09-12T05:10:38.197Z,45.90
2018-09-12T05:13:09.786Z,45.34
2018-09-12T05:15:41.365Z,46.03
2018-09-12T05:18:12.828Z,45.95
2018-09-12T05:20:44.434Z,46.23
2018-09-12T05:23:15.995Z,45.43
2018-09-12T05:25:47.665Z,45.73
2018-09-12T05:28:19.244Z,46.20
2018-09-12T05:30:50.751Z,45.46
2018-09-12T05:33:21.791Z,45.96
2018-09-12T05:35:52.796Z,46.12
2018-09-12T05:38:24.391Z,46.21
2018-09-12T05:40:55.884Z,45.45
2018-09-12T05:43:27.418Z,45.91
2018-09-12T05:45:58.841Z,45.76
2018-09-12T05:48:30.532Z,45.44
2018-09-12T05:51:02.226Z,45.93
2018-09-12T05:53:33.797Z,45.75
2018-09-12T05:56:05.374Z,45.90
2018-09-12T05:58:36.805Z,45.66
2018-09-12T06:01:08.309Z,45.77
2018-09-12T06:03:39.838Z,45.07
2018-09-12T06:06:11.594Z,45.46
2018-09-12T06:08:42.884Z,45.58
2018-09-12T06:11:13.535Z,45.82
2018-09-12T06:13:45.265Z,45.45
2018-09-12T06:16:16.823Z,45.47
2018-09-12T06:18:48.403Z,46.00
2018-09-12T06:21:19.879Z,45.59
2018-09-12T06:23:50.548Z,45.59
2018-09-12T06:26:22.224Z,45.31
2018-09-12T06:28:53.707Z,45.67
2018-09-12T06:31:25.302Z,45.58
2018-09-12T06:33:56.855Z,45.39
2018-09-12T06:36:28.548Z,45.11
2018-09-12T06:39:00.036Z,45.32
2018-09-12T06:41:30.677Z,45.27
2018-09-12T06:44:02.201Z,45.21
2018-09-12T06:46:33.754Z,45.03
2018-09-12T06:49:05.683Z,45.42
2018-09-12T06:51:37.195Z,45.32
2018-09-12T06:54:08.634Z,45.12
2018-09-12T06:56:40.225Z,45.06
2018-09-12T06:59:11.759Z,45.49
2018-09-12T07:01:43.443Z,45.19
2018-09-12T07:04:14.769Z,45.15
2018-09-12T07:06:45.804Z,44.96
2018-09-12T07:09:17.404Z,45.12
2018-09-12T07:11:48.899Z,45.12
2018-09-12T07:14:19.659Z,45.36
2018-09-12T07:16:51.209Z,45.06
2018-09-12T07:19:22.832Z,45.25
2018-09-12T07:21:54.417Z,44.97
2018-09-12T07:24:25.979Z,45.04
2018-09-12T07:26:57.561Z,45.36
2018-09-12T07:29:29.222Z,45.37
2018-09-12T07:32:00.736Z,44.86
2018-09-12T07:34:32.331Z,45.11
2018-09-12T07:37:03.786Z,44.86
2018-09-12T07:39:35.306Z,45.07
2018-09-12T07:42:06.751Z,44.78
2018-09-12T07:44:38.538Z,45.06
2018-09-12T07:47:10.225Z,44.85
2018-09-12T07:49:41.760Z,45.04
2018-09-12T07:52:12.880Z,44.92
2018-09-12T07:54:43.297Z,44.85
2018-09-12T07:57:14.842Z,44.75
2018-09-12T07:59:46.557Z,45.14
2018-09-12T08:02:18.226Z,45.20
2018-09-12T08:04:49.771Z,44.59
2018-09-12T08:07:21.236Z,44.84
2018-09-12T08:09:52.752Z,44.67
2018-09-12T08:12:23.886Z,45.17
2018-09-12T08:14:54.359Z,45.03
2018-09-12T08:17:25.683Z,44.46
2018-09-12T08:19:56.990Z,44.70
2018-09-12T08:22:28.623Z,44.60
2018-09-12T08:25:00.225Z,44.59
2018-09-12T08:27:31.672Z,44.65
2018-09-12T08:30:03.421Z,44.68
2018-09-12T08:32:34.897Z,44.92
2018-09-12T08:35:05.592Z,45.07
2018-09-12T08:37:37.212Z,45.03
2018-09-12T08:40:08.814Z,44.84
2018-09-12T08:42:40.082Z,44.93
2018-09-12T08:45:11.503Z,44.84
2018-09-12T08:47:43.295Z,44.94
2018-09-12T08:50:14.810Z,45.08
2018-09-12T08:52:46.420Z,45.08
2018-09-12T08:55:17.927Z,45.13
2018-09-12T08:57:48.609Z,45.42
2018-09-12T09:00:27.244Z,45.18
2018-09-12T09:02:58.699Z,45.09
2018-09-12T09:05:30.226Z,45.16
2018-09-12T09:08:01.710Z,45.52
2018-09-12T09:10:33.223Z,45.42
2018-09-12T09:13:04.718Z,45.88
2018-09-12T09:15:36.309Z,45.82
2018-09-12T09:18:08.816Z,45.69
2018-09-12T09:20:40.340Z,45.75
2018-09-12T09:23:11.813Z,45.99
2018-09-12T09:25:43.397Z,45.93
2018-09-12T09:28:14.799Z,45.35
2018-09-12T09:30:46.416Z,45.88
2018-09-12T09:33:17.870Z,46.12
2018-09-12T09:35:48.700Z,46.19
2018-09-12T09:38:20.232Z,46.00
2018-09-12T09:40:51.734Z,45.79
2018-09-12T09:43:22.797Z,45.77
2018-09-12T09:45:54.012Z,45.99
2018-09-12T09:48:25.673Z,45.89
2018-09-12T09:50:57.230Z,46.14
2018-09-12T09:53:28.849Z,46.19
2018-09-12T09:56:00.378Z,46.18
2018-09-12T09:58:31.778Z,46.25
2018-09-12T10:01:08.207Z,45.97
2018-09-12T10:03:44.494Z,46.21
2018-09-12T10:07:30.543Z,46.16
2018-09-12T10:10:05.563Z,46.23
2018-09-12T10:12:37.326Z,45.88
2018-09-12T10:15:08.572Z,46.24
2018-09-12T10:17:39.689Z,45.82
2018-09-12T10:20:10.717Z,46.20
2018-09-12T10:22:41.776Z,46.03
2018-09-12T10:25:13.229Z,46.00
2018-09-12T10:27:44.704Z,46.22
2018-09-12T10:30:16.221Z,46.16
2018-09-12T10:32:47.730Z,46.34
2018-09-12T10:35:19.204Z,45.99
2018-09-12T10:37:50.735Z,45.89
2018-09-12T10:40:22.652Z,46.01
2018-09-12T10:42:54.051Z,46.33
2018-09-12T10:45:25.667Z,46.08
2018-09-12T10:47:57.213Z,46.21
2018-09-12T10:50:28.774Z,46.29
2018-09-12T10:53:00.311Z,46.03
2018-09-12T10:55:31.764Z,45.73
2018-09-12T10:58:03.224Z,45.90
2018-09-12T11:00:34.710Z,46.20
2018-09-12T11:03:05.996Z,46.24
2018-09-12T11:05:37.585Z,46.12
2018-09-12T11:08:08.894Z,46.11
2018-09-12T11:10:39.597Z,45.71
2018-09-12T11:13:11.640Z,45.35
2018-09-12T11:15:43.562Z,45.74
2018-09-12T11:18:15.228Z,45.70
2018-09-12T11:20:46.715Z,45.61
2018-09-12T11:23:18.254Z,45.82
2018-09-12T11:25:49.694Z,45.60
2018-09-12T11:28:21.007Z,45.78
2018-09-12T11:30:52.613Z,45.65
2018-09-12T11:33:24.218Z,45.57
2018-09-12T11:35:55.762Z,45.56
2018-09-12T11:38:27.203Z,45.75
2018-09-12T11:40:58.754Z,46.00
2018-09-12T11:43:30.211Z,45.76
2018-09-12T11:46:01.808Z,46.01
2018-09-12T11:48:33.345Z,45.73
2018-09-12T11:51:04.780Z,46.00
2018-09-12T11:53:36.033Z,46.04
2018-09-12T11:56:07.521Z,45.71
2018-09-12T11:58:39.326Z,45.98
2018-09-12T12:01:11.234Z,45.65
2018-09-12T12:03:42.762Z,45.78
2018-09-12T12:06:14.303Z,45.72
2018-09-12T12:08:45.744Z,45.99
2018-09-12T12:11:17.045Z,45.54
2018-09-12T12:13:48.363Z,45.58
2018-09-12T12:16:19.813Z,45.96
2018-09-12T12:18:51.409Z,45.66
2018-09-12T12:21:22.775Z,45.90
2018-09-12T12:23:54.380Z,45.63
2018-09-12T12:26:25.806Z,45.93
2018-09-12T12:28:57.500Z,45.75
2018-09-12T12:31:28.939Z,45.95
2018-09-12T12:34:00.532Z,45.61
2018-09-12T12:36:31.981Z,45.92
2018-09-12T12:39:03.615Z,45.74
2018-09-12T12:41:35.713Z,45.89
2018-09-12T12:44:07.439Z,45.44
2018-09-12T12:46:38.856Z,45.43
2018-09-12T12:49:10.214Z,45.35
2018-09-12T12:51:41.714Z,45.55
2018-09-12T12:54:13.234Z,45.72
2018-09-12T12:56:44.710Z,45.57
2018-09-12T12:59:16.318Z,45.78
2018-09-12T13:01:47.888Z,45.91
2018-09-12T13:04:18.643Z,45.91
2018-09-12T13:06:50.200Z,45.82
2018-09-12T13:09:21.767Z,45.38
2018-09-12T13:11:53.339Z,45.67
2018-09-12T13:14:24.771Z,45.51
2018-09-12T13:16:56.324Z,45.74
2018-09-12T13:19:27.912Z,45.89
2018-09-12T13:21:58.645Z,45.88
2018-09-12T13:24:30.225Z,45.70
2018-09-12T13:27:01.729Z,45.77
2018-09-12T13:29:33.293Z,45.67
2018-09-12T13:32:04.730Z,45.65
2018-09-12T13:34:36.448Z,45.72
2018-09-12T13:37:08.219Z,45.47
2018-09-12T13:39:40.212Z,45.55
2018-09-12T13:42:11.667Z,45.78
2018-09-12T13:44:43.211Z,45.92
2018-09-12T13:47:14.787Z,45.45
2018-09-12T13:49:46.333Z,45.63
2018-09-12T13:52:17.818Z,45.53
2018-09-12T13:54:49.039Z,45.47
2018-09-12T13:57:20.779Z,45.63
2018-09-12T13:59:52.326Z,45.66
2018-09-12T14:02:23.836Z,45.62
2018-09-12T14:04:55.400Z,45.64
2018-09-12T14:07:26.765Z,45.22
2018-09-12T14:09:58.231Z,45.54
2018-09-12T14:12:29.766Z,45.42
2018-09-12T14:15:01.251Z,45.57
2018-09-12T14:17:32.780Z,45.84
2018-09-12T14:20:04.307Z,45.86
2018-09-12T14:22:36.075Z,45.92
2018-09-12T14:25:07.788Z,45.71
2018-09-12T14:27:39.337Z,45.40
2018-09-12T14:30:10.777Z,45.87
2018-09-12T14:32:42.337Z,45.66
2018-09-12T14:35:13.902Z,45.30
2018-09-12T14:37:44.594Z,45.52
2018-09-12T14:40:16.247Z,45.46
2018-09-12T14:42:47.705Z,44.72
2018-09-12T14:45:19.213Z,45.05
2018-09-12T14:47:50.724Z,45.29
2018-09-12T14:50:22.225Z,45.50
2018-09-12T14:52:53.715Z,45.40
2018-09-12T14:55:24.925Z,45.17
2018-09-12T14:57:55.621Z,45.36
2018-09-12T15:00:28.859Z,45.78
2018-09-12T15:03:00.766Z,45.39
2018-09-12T15:05:32.305Z,45.58
2018-09-12T15:08:03.822Z,45.73
2018-09-12T15:10:35.342Z,45.53
2018-09-12T15:13:06.769Z,45.40
2018-09-12T15:15:38.408Z,45.56
2018-09-12T15:18:09.866Z,45.39
2018-09-12T15:20:41.327Z,45.77
2018-09-12T15:23:12.811Z,45.37
2018-09-12T15:25:44.458Z,45.61
2018-09-12T15:28:16.739Z,45.41
2018-09-12T15:30:48.315Z,45.54
2018-09-12T15:33:44.595Z,45.43
2018-09-12T15:36:15.721Z,45.26
2018-09-12T15:38:46.760Z,45.29
2018-09-12T15:41:17.684Z,45.28
2018-09-12T15:43:48.564Z,45.32
2018-09-12T15:46:19.619Z,45.47
2018-09-12T15:48:50.707Z,45.34
2018-09-12T15:51:21.713Z,45.54
2018-09-12T15:53:52.764Z,45.50
2018-09-12T15:56:23.817Z,45.46
2018-09-12T15:58:54.658Z,45.79
2018-09-12T16:01:25.499Z,45.69
2018-09-12T16:03:56.704Z,45.90
2018-09-12T16:06:27.894Z,45.65
2018-09-12T16:08:58.548Z,45.81
2018-09-12T16:11:30.216Z,45.46
2018-09-12T16:14:01.692Z,45.83
2018-09-12T16:16:33.199Z,45.83
2018-09-12T16:19:04.781Z,45.46
2018-09-12T16:21:36.416Z,45.63
2018-09-12T16:24:07.853Z,45.92
2018-09-12T16:26:39.406Z,45.42
2018-09-12T16:29:10.816Z,45.84
2018-09-12T16:31:42.404Z,45.54
2018-09-12T16:34:13.772Z,45.49
2018-09-12T16:36:45.356Z,45.60
2018-09-12T16:39:16.853Z,45.74
2018-09-12T16:41:48.287Z,45.61
2018-09-12T16:44:19.741Z,45.41
2018-09-12T16:46:51.386Z,45.60
2018-09-12T16:49:22.902Z,45.85
2018-09-12T16:51:53.607Z,44.92
2018-09-12T16:54:24.885Z,45.41
2018-09-12T16:56:55.535Z,45.37
2018-09-12T16:59:26.993Z,45.78
2018-09-12T17:01:58.662Z,45.83
2018-09-12T17:04:30.220Z,45.72
2018-09-12T17:07:01.779Z,45.69
2018-09-12T17:09:34.214Z,45.51
2018-09-12T17:12:05.746Z,44.48
2018-09-12T17:14:36.741Z,45.04
2018-09-12T17:17:08.467Z,45.44
2018-09-12T17:19:39.836Z,44.94
2018-09-12T17:22:11.507Z,45.60
2018-09-12T17:24:43.212Z,44.46
2018-09-12T17:27:14.729Z,45.49
2018-09-12T17:29:46.712Z,44.92
2018-09-12T17:32:18.315Z,44.97
2018-09-12T17:34:49.814Z,45.18
2018-09-12T17:37:21.374Z,45.62
2018-09-12T17:39:52.903Z,46.04
2018-09-12T17:42:23.579Z,46.11
2018-09-12T17:44:54.997Z,46.43
2018-09-12T17:47:26.647Z,46.11
2018-09-12T17:49:58.326Z,46.19
2018-09-12T17:52:29.782Z,45.63
2018-09-12T17:55:01.389Z,46.42
2018-09-12T17:57:32.736Z,46.29
2018-09-12T18:00:04.307Z,47.05
2018-09-12T18:02:35.912Z,46.21
2018-09-12T18:05:06.565Z,46.54
2018-09-12T18:07:38.208Z,46.57
2018-09-12T18:10:09.888Z,46.16
2018-09-12T18:12:40.552Z,45.82
2018-09-12T18:15:12.229Z,46.43
2018-09-12T18:17:43.839Z,45.52
2018-09-12T18:20:15.811Z,45.44
2018-09-12T18:22:47.835Z,46.06
2018-09-12T18:25:19.640Z,45.67
2018-09-12T18:27:51.461Z,44.72
2018-09-12T18:30:23.501Z,44.30
2018-09-12T18:32:55.201Z,44.30
2018-09-12T18:35:26.713Z,44.57
2018-09-12T18:37:58.398Z,44.78
2018-09-12T18:40:30.708Z,44.48
2018-09-12T18:43:02.353Z,44.21
2018-09-12T18:45:33.845Z,44.26
2018-09-12T18:48:05.012Z,44.62
2018-09-12T18:50:36.470Z,44.30
2018-09-12T18:53:08.228Z,44.05
2018-09-12T18:55:39.768Z,44.27
2018-09-12T18:58:11.414Z,44.46
2018-09-12T19:00:43.705Z,44.25
2018-09-12T19:03:15.313Z,44.49
2018-09-12T19:05:46.756Z,44.22
2018-09-12T19:08:18.343Z,44.27
2018-09-12T19:10:49.817Z,44.38
2018-09-12T19:13:21.465Z,44.54
2018-09-12T19:15:53.022Z,44.36
2018-09-12T19:18:24.808Z,44.49
2018-09-12T19:20:56.376Z,44.65
2018-09-12T19:23:28.233Z,44.80
2018-09-12T19:25:59.714Z,44.43
2018-09-12T19:35:07.901Z,44.35
2018-09-12T19:37:38.586Z,44.54
2018-09-12T19:40:09.680Z,44.48
2018-09-12T19:42:40.752Z,44.60
2018-09-12T19:45:11.896Z,44.62
2018-09-12T19:47:45.492Z,44.88
2018-09-12T19:50:17.021Z,44.56
2018-09-12T19:52:48.669Z,45.10
2018-09-12T19:55:19.986Z,44.60
2018-09-12T19:57:51.564Z,44.83
2018-09-12T20:00:23.068Z,44.59
2018-09-12T20:02:54.653Z,44.66
2018-09-12T20:05:26.225Z,44.89
2018-09-12T20:07:57.726Z,44.65
2018-09-12T20:10:29.291Z,44.90
2018-09-12T20:13:00.688Z,45.16
2018-09-12T20:15:32.036Z,44.83
2018-09-12T20:18:02.622Z,44.85
2018-09-12T20:20:34.191Z,45.40
2018-09-12T20:23:05.757Z,45.63
2018-09-12T20:25:37.628Z,45.45
2018-09-12T20:28:09.762Z,45.59
2018-09-12T20:30:41.318Z,45.58
2018-09-12T20:33:12.816Z,45.37
2018-09-12T20:35:44.343Z,45.47
2018-09-12T20:38:16.222Z,45.32
2018-09-12T20:40:47.634Z,45.84
2018-09-12T20:43:19.027Z,45.30
2018-09-12T20:45:50.651Z,45.68
2018-09-12T20:48:22.208Z,45.80
2018-09-12T20:50:53.696Z,45.29
2018-09-12T20:53:25.420Z,45.53
2018-09-12T20:55:57.187Z,45.92
2018-09-12T20:58:28.800Z,45.76
2018-09-12T21:01:00.315Z,45.67
2018-09-12T21:03:31.793Z,45.66
2018-09-12T21:06:03.001Z,45.73
2018-09-12T21:08:34.684Z,45.35
2018-09-12T21:11:06.214Z,45.91
2018-09-12T21:13:38.431Z,45.80
2018-09-12T21:16:09.738Z,45.58
2018-09-12T21:18:41.541Z,45.67
2018-09-12T21:21:13.203Z,45.23
2018-09-12T21:23:44.757Z,45.40
2018-09-12T21:26:16.345Z,45.84
2018-09-12T21:28:48.205Z,45.95
2018-09-12T21:31:19.703Z,46.11
2018-09-12T21:33:51.217Z,45.60
2018-09-12T21:36:22.880Z,45.74
2018-09-12T21:38:53.647Z,45.74
2018-09-12T21:41:25.190Z,45.88
2018-09-12T21:43:56.754Z,45.96
2018-09-12T21:46:28.201Z,45.90
2018-09-12T21:49:00.050Z,45.73
2018-09-12T21:51:31.682Z,45.93
2018-09-12T21:54:03.193Z,45.97
2018-09-12T21:56:35.219Z,46.18
2018-09-12T21:59:06.661Z,45.74
2018-09-12T22:01:38.204Z,45.91
2018-09-12T22:04:09.805Z,46.11
2018-09-12T22:06:41.033Z,45.88
2018-09-12T22:09:14.685Z,46.07
2018-09-12T22:11:46.025Z,46.01
2018-09-12T22:14:17.719Z,45.92
2018-09-12T22:16:49.207Z,46.15
2018-09-12T22:19:20.777Z,45.63
2018-09-12T22:21:52.313Z,45.96
2018-09-12T22:24:23.733Z,45.98
2018-09-12T22:26:55.308Z,46.05
2018-09-12T22:29:27.198Z,45.96
2018-09-12T22:31:58.613Z,46.08
2018-09-12T22:34:30.506Z,46.23
2018-09-12T22:37:01.994Z,45.89
2018-09-12T22:39:33.679Z,45.99
2018-09-12T22:42:05.055Z,46.31
2018-09-12T22:44:36.701Z,45.98
2018-09-12T22:47:08.014Z,46.15
2018-09-12T22:49:39.630Z,46.31
2018-09-12T22:52:11.208Z,45.90
2018-09-12T22:54:42.682Z,45.98
2018-09-12T22:57:14.284Z,45.85
2018-09-12T22:59:45.798Z,46.14
2018-09-12T23:02:17.338Z,46.02
2018-09-12T23:07:29.638Z,46.22
2018-09-12T23:10:00.701Z,46.41
2018-09-12T23:12:31.663Z,46.18
2018-09-12T23:15:02.963Z,45.93
2018-09-12T23:17:34.430Z,46.30
2018-09-12T23:20:05.843Z,46.22
2018-09-12T23:22:37.401Z,46.42
2018-09-12T23:25:08.842Z,46.39
2018-09-12T23:27:40.217Z,46.17
2018-09-12T23:30:11.703Z,46.51
2018-09-12T23:32:43.328Z,46.34
2018-09-12T23:35:14.800Z,46.18
2018-09-12T23:37:46.220Z,46.05
2018-09-12T23:40:17.731Z,46.14
2018-09-12T23:42:49.212Z,46.18
2018-09-12T23:45:20.682Z,46.60
2018-09-12T23:47:52.205Z,46.66
2018-09-12T23:50:23.650Z,46.15
2018-09-12T23:52:54.988Z,46.13
2018-09-12T23:55:26.538Z,46.14
2018-09-12T23:57:58.315Z,46.30
